Moriarty, NM

8:07 PM MDT on March 22, 2017 (GMT -0600)
Moriarty

Weather History for K0E0 - March, 2014

Change the Weather History Date:

Friday, March 7, 2014

  Actual Average (KABQ) Record (KABQ)
Temperature  
Mean Temperature 46 °F -  
Max Temperature 59 °F 60 °F 79 °F (1972)
Min Temperature 33 °F 31 °F 10 °F (1971)
Degree Days  
Heating Degree Days 19    
Moisture  
Dew Point 22 °F    
Average Humidity 40    
Maximum Humidity 64    
Minimum Humidity 24    
Precipitation  
Precipitation 0.00 in - - ()
Sea Level Pressure  
Sea Level Pressure 29.93 in    
Wind  
Wind Speed 10 mph (WNW)    
Max Wind Speed 22 mph    
Max Gust Speed 30 mph    
Visibility 10 miles    
Events      
Averages and records for this station are not official NWS values.
T = Trace of Precipitation, MM = Missing Value Source: NWS Daily Summary

Daily Weather History Graph

Daily Weather History Graph

Search for Another Location

Airport or City:

Trip Planner

Search our weather history database for the weather conditions in past years. The results will help you decide how hot, cold, wet, or windy it might be!

Date:

Astronomy

Mar. 07, 2014 Rise Set
Actual Time 6:25 AM MST 6:05 PM MST
Civil Twilight 6:00 AM MST 6:30 PM MST
Nautical Twilight 5:30 AM MST 6:59 PM MST
Astronomical Twilight 5:01 AM MST 7:29 PM MST
Moon 10:34 AM MST (3/7) No Moon Set
Length of Visible Light 12h 30m
Length of Day
11h 39m
Waxing Crescent, 42% of the Moon is Illuminated
Mar 7
Waxing Crescent
Mar 8
First Quarter
Mar 16
Full
Mar 23
Last Quarter
Mar 30
New

Hourly Weather History & Observations

Time (MST) Temp. Windchill Dew Point Humidity Pressure Visibility Wind Dir Wind Speed Gust Speed Precip Events Conditions
12:15 AM 43.7 °F 39.1 °F 19.4 °F 38% 29.99 in 10.0 mi West 8.1 mph - N/A   Scattered Clouds
12:35 AM 43.2 °F 38.4 °F 19.2 °F 38% 29.99 in 10.0 mi West 8.1 mph - N/A   Mostly Cloudy
12:55 AM 41.7 °F - 18.9 °F 40% 29.96 in 10.0 mi Calm Calm - N/A   Mostly Cloudy
1:15 AM 37.8 °F - 19.0 °F 47% 29.96 in 10.0 mi Calm Calm - N/A   Scattered Clouds
1:35 AM 35.6 °F - 19.4 °F 52% 29.96 in 10.0 mi Calm Calm - N/A   Scattered Clouds
1:55 AM 37.2 °F 32.6 °F 19.0 °F 48% 29.96 in 10.0 mi West 5.8 mph - N/A   Scattered Clouds
2:15 AM 37.9 °F 31.5 °F 19.4 °F 47% 29.96 in 10.0 mi West 9.2 mph - N/A   Clear
2:35 AM 35.4 °F 29.7 °F 19.2 °F 52% 29.94 in 10.0 mi West 6.9 mph - N/A   Clear
2:55 AM 35.8 °F 31.9 °F 18.9 °F 50% 29.94 in 10.0 mi West 4.6 mph - N/A   Clear
3:15 AM 34.3 °F 28.4 °F 18.5 °F 52% 29.94 in 10.0 mi WSW 6.9 mph - N/A   Clear
3:35 AM 39.2 °F 32.0 °F 18.1 °F 43% 29.94 in 10.0 mi WSW 11.5 mph - N/A   Clear
3:55 AM 34.5 °F 28.6 °F 18.1 °F 51% 29.94 in 10.0 mi WSW 6.9 mph - N/A   Clear
4:15 AM 33.1 °F 24.9 °F 18.3 °F 55% 29.93 in 10.0 mi WSW 10.4 mph - N/A   Clear
4:35 AM 34.5 °F 26.2 °F 18.3 °F 52% 29.94 in 10.0 mi WSW 11.5 mph - N/A   Clear
4:55 AM 35.8 °F 27.8 °F 18.1 °F 49% 29.94 in 10.0 mi West 11.5 mph - N/A   Clear
5:15 AM 38.8 °F 31.6 °F 16.9 °F 41% 29.94 in 10.0 mi West 11.5 mph - N/A   Clear
5:35 AM 36.9 °F 29.6 °F 16.7 °F 44% 29.94 in 10.0 mi West 10.4 mph - N/A   Clear
5:55 AM 35.6 °F 29.2 °F 16.5 °F 46% 29.94 in 10.0 mi WNW 8.1 mph - N/A   Clear
6:15 AM 39.0 °F 31.4 °F 16.5 °F 40% 29.93 in 10.0 mi WSW 12.7 mph - N/A   Clear
6:35 AM 39.4 °F 33.2 °F 16.2 °F 39% 29.94 in 10.0 mi West 9.2 mph - N/A   Clear
6:55 AM 38.3 °F 32.5 °F 17.2 °F 43% 29.94 in 10.0 mi West 8.1 mph - N/A   Clear
7:15 AM 42.6 °F 37.2 °F 17.8 °F 37% 29.93 in 10.0 mi WSW 9.2 mph - N/A   Clear
7:35 AM 45.1 °F 39.9 °F 17.6 °F 33% 29.94 in 10.0 mi WSW 10.4 mph - N/A   Clear
7:55 AM 47.8 °F - 17.6 °F 30% 29.93 in 10.0 mi West 15.0 mph - N/A   Clear
8:15 AM 50.2 °F - 17.8 °F 28% 29.92 in 10.0 mi West 16.1 mph - N/A   Clear
8:35 AM 51.8 °F - 17.6 °F 26% 29.93 in 10.0 mi West 18.4 mph - N/A   Clear
8:55 AM 52.0 °F - 18.0 °F 26% 29.93 in 10.0 mi West 13.8 mph 17.3 mph N/A   Clear
9:15 AM 52.9 °F - 18.1 °F 26% 29.93 in 10.0 mi West 9.2 mph - N/A   Clear
9:35 AM 56.5 °F - 19.9 °F 24% 29.93 in 10.0 mi West 16.1 mph 25.3 mph N/A   Clear
9:55 AM 53.8 °F - 19.9 °F 27% 29.93 in 10.0 mi West 15.0 mph 25.3 mph N/A   Clear
10:10 AM 55.4 °F - 22.8 °F 28% 29.93 in 10.0 mi West 16.1 mph 20.7 mph N/A   Clear
10:35 AM 53.6 °F - 23.0 °F 30% 29.94 in 10.0 mi West 17.3 mph 23.0 mph N/A   Clear
10:55 AM 52.7 °F - 22.8 °F 31% 29.93 in 10.0 mi WNW 13.8 mph - N/A   Clear
11:15 AM 53.1 °F - 24.6 °F 33% 29.93 in 10.0 mi WNW 15.0 mph 19.6 mph N/A   Clear
11:35 AM 53.8 °F - 25.3 °F 33% 29.93 in 10.0 mi WNW 17.3 mph 23.0 mph N/A   Clear
11:55 AM 54.0 °F - 25.7 °F 34% 29.92 in 10.0 mi WNW 20.7 mph 29.9 mph N/A   Clear
12:15 PM 54.5 °F - 25.0 °F 32% 29.90 in 10.0 mi West 16.1 mph - N/A   Clear
12:35 PM 55.6 °F - 25.2 °F 31% 29.90 in 10.0 mi West 13.8 mph 23.0 mph N/A   Scattered Clouds
12:55 PM 56.5 °F - 24.1 °F 29% 29.89 in 10.0 mi NW 18.4 mph - N/A   Mostly Cloudy
1:15 PM 57.9 °F - 23.7 °F 27% 29.88 in 10.0 mi NW 20.7 mph 25.3 mph N/A   Mostly Cloudy
1:35 PM 58.1 °F - 25.0 °F 28% 29.87 in 10.0 mi NW 16.1 mph 21.9 mph N/A   Mostly Cloudy
1:55 PM 57.2 °F - 27.0 °F 31% 29.87 in 10.0 mi WNW 18.4 mph 24.2 mph N/A   Scattered Clouds
2:15 PM 59.9 °F - 26.8 °F 28% 29.86 in 10.0 mi WNW 20.7 mph 29.9 mph N/A   Scattered Clouds
2:35 PM 58.5 °F - 26.8 °F 30% 29.86 in 10.0 mi NW 20.7 mph 28.8 mph N/A   Scattered Clouds
2:55 PM 55.0 °F - 26.6 °F 33% 29.87 in 10.0 mi WNW 21.9 mph - N/A   Mostly Cloudy
3:15 PM 57.4 °F - 27.1 °F 31% 29.88 in 10.0 mi NW 21.9 mph 26.5 mph N/A   Mostly Cloudy
3:35 PM 47.3 °F - 35.6 °F 64% 29.89 in 10.0 mi NW 17.3 mph - N/A   Scattered Clouds
3:55 PM 53.1 °F - 32.7 °F 46% 29.88 in 10.0 mi WNW 11.5 mph - N/A   Clear
4:15 PM 54.0 °F - 28.6 °F 38% 29.88 in 10.0 mi NW 18.4 mph - N/A   Clear
4:35 PM 51.1 °F - 29.1 °F 43% 29.88 in 10.0 mi WNW 19.6 mph 28.8 mph N/A   Mostly Cloudy
4:55 PM 50.9 °F - 28.9 °F 43% 29.89 in 10.0 mi WNW 13.8 mph - N/A   Mostly Cloudy
5:15 PM 49.3 °F - 29.8 °F 47% 29.89 in 10.0 mi NW 16.1 mph - N/A   Light Drizzle
5:35 PM 48.9 °F - 30.0 °F 48% 29.89 in 10.0 mi North 6.9 mph - N/A   Scattered Clouds
5:55 PM 46.8 °F - 28.9 °F 50% 29.90 in 10.0 mi NW 11.5 mph - N/A   Scattered Clouds
6:15 PM 47.1 °F - 23.2 °F 39% 29.90 in 10.0 mi NW 18.4 mph 23.0 mph N/A   Clear
6:35 PM 46.0 °F 39.9 °F 23.9 °F 42% 29.92 in 10.0 mi NW 13.8 mph - N/A   Clear
6:55 PM 43.7 °F 39.7 °F 23.0 °F 44% 29.93 in 10.0 mi NNW 6.9 mph - N/A   Clear
7:15 PM 43.3 °F - 22.6 °F 44% 29.95 in 10.0 mi Calm Calm - N/A   Clear
7:35 PM 42.8 °F - 21.7 °F 43% 29.96 in 10.0 mi Calm Calm - N/A   Clear
7:55 PM 42.4 °F 39.6 °F 21.0 °F 43% 29.96 in 10.0 mi NNE 4.6 mph - N/A   Clear
8:15 PM 38.5 °F 33.4 °F 20.3 °F 48% 29.97 in 10.0 mi NW 6.9 mph - N/A   Clear
8:35 PM 42.3 °F 35.9 °F 19.4 °F 40% 29.98 in 10.0 mi NW 11.5 mph - N/A   Clear
8:55 PM 42.6 °F 34.0 °F 20.1 °F 41% 29.96 in 10.0 mi NW 19.6 mph 23.0 mph N/A   Clear
9:15 PM 42.3 °F 34.8 °F 19.8 °F 41% 29.96 in 10.0 mi NW 15.0 mph - N/A   Clear
9:35 PM 41.0 °F 35.2 °F 20.1 °F 43% 29.98 in 10.0 mi NNW 9.2 mph - N/A   Clear
9:55 PM 39.2 °F 33.6 °F 20.3 °F 47% 29.99 in 10.0 mi NW 8.1 mph - N/A   Clear
10:15 PM 38.7 °F 30.9 °F 19.9 °F 47% 29.98 in 10.0 mi NW 12.7 mph 18.4 mph N/A   Clear
10:35 PM 39.0 °F 33.4 °F 19.4 °F 45% 30.00 in 10.0 mi NE 8.1 mph - N/A   Clear
10:55 PM 39.4 °F 33.8 °F 20.3 °F 46% 30.00 in 10.0 mi North 8.1 mph - N/A   Clear
11:15 PM 37.4 °F 31.4 °F 20.3 °F 50% 30.00 in 10.0 mi NW 8.1 mph - N/A   Clear
11:35 PM 36.7 °F 30.5 °F 20.3 °F 52% 30.01 in 10.0 mi North 8.1 mph - N/A   Clear
11:55 PM 33.6 °F 27.5 °F 20.5 °F 59% 30.01 in 10.0 mi West 6.9 mph - N/A   Clear